»·PEaware :: UAL1399 KPDX-KGEG

UAL1399 :: KPDX-KGEG

FLIGHT INFORMATION

Flight Status: Arrived
Operator:
United Airlines
More flights by this operator :: More flights under this callsign
Pilot: David C. (16084)
Aircraft: AIRBUS A320
(A320)
More flights by this aircraft type
Origin: KPDX Portland Intl
United States
Destination: KGEG Spokane Intl
United States
More flights between these airports :: More routes between these airports
Route: +LAVAA6 YKM MWH ZOOMR1
File this flight plan on PilotEdge
Remarks:
Altitude:
(Current/Filed)
31,000ft
Speed:
(Current/Filed)
463kts
Departed: 18-Mar-18 12:35 PM
Arrived: 18-Mar-18 01:27 PM
Distance/Time
Traveled:
242nm/0:52
Distance/Time
To Go:
Arrived

Flight Plot

Page will automatically refresh every two minutes.

Flight plan parsing failed; only flown route is shown


Map Options




Map Legend


Flown Route
Filed Route
Departure Airport
Arrival Airport
Navaid (VOR, NDB)
Fix

Horizontal Profiles

Position Reports

Time Latitude Longitude Heading Altitude Ground
Speed
18-Mar-18 11:56 45.590228 -122.591577 209 38ft 0kts
18-Mar-18 11:57 45.590228 -122.591577 209 38ft 0kts
18-Mar-18 11:58 45.590228 -122.591577 209 38ft 0kts
18-Mar-18 11:59 45.590228 -122.591577 209 38ft 0kts
18-Mar-18 12:00 45.590228 -122.591577 209 38ft 0kts
18-Mar-18 12:01 45.590228 -122.591577 209 38ft 0kts
18-Mar-18 12:02 45.590228 -122.591577 209 38ft 0kts
18-Mar-18 12:03 45.590228 -122.591577 209 38ft 0kts
18-Mar-18 12:04 45.590228 -122.591577 209 38ft 0kts
18-Mar-18 12:05 45.590228 -122.591577 209 38ft 0kts
18-Mar-18 12:06 45.590228 -122.591577 209 38ft 0kts
18-Mar-18 12:07 45.590228 -122.591577 209 38ft 0kts
18-Mar-18 12:08 45.590228 -122.591577 209 38ft 0kts
18-Mar-18 12:09 45.590228 -122.591577 209 38ft 0kts
18-Mar-18 12:10 45.590228 -122.591577 209 38ft 0kts
18-Mar-18 12:11 45.590228 -122.591577 209 38ft 0kts
18-Mar-18 12:12 45.590228 -122.591577 209 38ft 0kts
18-Mar-18 12:13 45.590228 -122.591577 209 38ft 0kts
18-Mar-18 12:14 45.590228 -122.591577 209 38ft 0kts
18-Mar-18 12:15 45.590228 -122.591577 209 38ft 0kts
18-Mar-18 12:16 45.590228 -122.591577 209 38ft 0kts
18-Mar-18 12:17 45.590228 -122.591577 209 38ft 0kts
18-Mar-18 12:18 45.590228 -122.591577 209 38ft 0kts
18-Mar-18 12:19 45.590228 -122.591577 209 38ft 0kts
18-Mar-18 12:20 45.590228 -122.591577 209 38ft 0kts
18-Mar-18 12:21 45.590228 -122.591577 209 38ft 0kts
18-Mar-18 12:22 45.590530 -122.591333 209 38ft 0kts
18-Mar-18 12:23 45.591029 -122.591382 137 38ft 2kts
18-Mar-18 12:24 45.591135 -122.591583 119 38ft 0kts
18-Mar-18 12:25 45.591135 -122.591583 119 38ft 0kts
18-Mar-18 12:26 45.591135 -122.591583 119 38ft 0kts
18-Mar-18 12:27 45.591135 -122.591583 119 38ft 0kts
18-Mar-18 12:28 45.590608 -122.591166 176 38ft 9kts
18-Mar-18 12:29 45.591890 -122.593575 298 38ft 16kts
18-Mar-18 12:30 45.594522 -122.600338 298 38ft 16kts
18-Mar-18 12:31 45.595570 -122.600615 32 38ft 0kts
18-Mar-18 12:32 45.595570 -122.600615 32 38ft 0kts
18-Mar-18 12:33 45.596138 -122.599082 114 38ft 12kts
18-Mar-18 12:34 45.587684 -122.577364 118 86ft 175kts
18-Mar-18 12:35 45.571630 -122.507750 98 2789ft 208kts
18-Mar-18 12:36 45.559412 -122.427264 102 5778ft 219kts
18-Mar-18 12:37 45.544829 -122.341508 89 8201ft 247kts
18-Mar-18 12:38 45.583618 -122.259169 45 10484ft 284kts
18-Mar-18 12:39 45.637901 -122.176551 45 13305ft 300kts
18-Mar-18 12:40 45.677559 -122.070471 64 15918ft 317kts
18-Mar-18 12:41 45.714398 -121.956134 63 18282ft 330kts
18-Mar-18 12:42 45.747319 -121.856307 54 20114ft 340kts
18-Mar-18 12:43 45.819062 -121.734383 46 22452ft 352kts
18-Mar-18 12:44 45.883643 -121.625848 46 24299ft 364kts
18-Mar-18 12:45 45.949890 -121.514053 46 25997ft 374kts
18-Mar-18 12:46 46.018037 -121.398583 46 27561ft 384kts
18-Mar-18 12:47 46.075414 -121.300984 46 28736ft 392kts
18-Mar-18 12:48 46.157391 -121.160941 46 30252ft 401kts
18-Mar-18 12:49 46.217567 -121.057700 47 31219ft 408kts
18-Mar-18 12:50 46.307069 -120.903324 47 31196ft 451kts
18-Mar-18 12:51 46.374508 -120.786488 47 31191ft 475kts
18-Mar-18 12:52 46.459989 -120.637731 47 31190ft 484kts
18-Mar-18 12:53 46.560367 -120.462036 47 31190ft 485kts
18-Mar-18 12:54 46.632115 -120.337680 47 31189ft 485kts
18-Mar-18 12:55 46.718345 -120.188051 47 31186ft 485kts
18-Mar-18 12:56 46.804545 -120.037568 47 31177ft 485kts
18-Mar-18 12:57 46.890511 -119.886661 47 31163ft 485kts
18-Mar-18 12:58 46.973901 -119.739551 48 31152ft 457kts
18-Mar-18 12:59 47.054509 -119.596499 50 30265ft 457kts
18-Mar-18 13:00 47.133452 -119.455650 50 29321ft 458kts
18-Mar-18 13:01 47.208386 -119.312186 61 27079ft 454kts
18-Mar-18 13:02 47.250122 -119.135993 71 23897ft 459kts
18-Mar-18 13:03 47.288186 -118.959649 71 20844ft 458kts
18-Mar-18 13:04 47.325539 -118.784975 70 18225ft 443kts
18-Mar-18 13:05 47.361385 -118.615854 71 15598ft 428kts
18-Mar-18 13:06 47.390906 -118.475716 71 13567ft 355kts
18-Mar-18 13:07 47.417168 -118.350204 71 11887ft 306kts
18-Mar-18 13:08 47.440789 -118.236104 72 10088ft 294kts
18-Mar-18 13:09 47.465006 -118.121083 65 10031ft 295kts
18-Mar-18 13:10 47.506670 -118.021175 55 8737ft 277kts
18-Mar-18 13:11 47.548006 -117.927559 55 6900ft 277kts
18-Mar-18 13:12 47.592960 -117.838451 50 6030ft 270kts
18-Mar-18 13:13 47.639627 -117.751804 50 6029ft 264kts
18-Mar-18 13:14 47.680219 -117.675868 50 6036ft 213kts
18-Mar-18 13:15 47.715748 -117.609483 50 6016ft 205kts
18-Mar-18 13:16 47.751447 -117.544009 50 6021ft 205kts
18-Mar-18 13:17 47.786190 -117.481384 50 6027ft 194kts
18-Mar-18 13:18 47.820303 -117.421444 50 5038ft 191kts
18-Mar-18 13:19 47.820193 -117.361918 171 5032ft 174kts
18-Mar-18 13:20 47.773917 -117.378147 195 4250ft 174kts
18-Mar-18 13:21 47.729593 -117.397187 195 4032ft 161kts
18-Mar-18 13:22 47.695379 -117.422619 222 4026ft 140kts
18-Mar-18 13:23 47.669577 -117.460686 224 3483ft 138kts
18-Mar-18 13:24 47.642961 -117.500677 223 2752ft 136kts
18-Mar-18 13:25 47.620670 -117.534136 224 2393ft 43kts
18-Mar-18 13:26 47.618130 -117.540221 272 2393ft 0kts
18-Mar-18 13:27 47.618191 -117.540807 296 2393ft 9kts
18-Mar-18 13:28 47.622700 -117.535211 45 2393ft 28kts
18-Mar-18 13:29 47.625991 -117.533696 316 2393ft 12kts
18-Mar-18 13:30 47.625918 -117.535023 216 2393ft 0kts
18-Mar-18 13:31 47.625918 -117.535023 216 2393ft 0kts
18-Mar-18 13:32 47.625918 -117.535023 216 2393ft 0kts

Navigation Log

Ident Type
Flight plan parsing failed, navigation log unavailable